sensor_id;sensor_type;location;lat;lon;timestamp;P1;durP1;ratioP1;P2;durP2;ratioP2
81725;SDS011;71135;16.738;-14.648;2024-02-23T00:01:37;4.15;;;0.82;;
81725;SDS011;71135;16.738;-14.648;2024-02-23T00:04:08;5.63;;;1.30;;
81725;SDS011;71135;16.738;-14.648;2024-02-23T00:06:43;8.85;;;1.40;;
81725;SDS011;71135;16.738;-14.648;2024-02-23T00:09:12;7.25;;;0.90;;
81725;SDS011;71135;16.738;-14.648;2024-02-23T00:11:43;2.58;;;0.75;;
81725;SDS011;71135;16.738;-14.648;2024-02-23T00:14:15;8.45;;;0.90;;
81725;SDS011;71135;16.738;-14.648;2024-02-23T00:16:46;6.78;;;1.08;;
81725;SDS011;71135;16.738;-14.648;2024-02-23T00:19:15;9.57;;;1.30;;
81725;SDS011;71135;16.738;-14.648;2024-02-23T00:22:04;6.45;;;1.40;;
81725;SDS011;71135;16.738;-14.648;2024-02-23T00:24:33;9.75;;;2.20;;
81725;SDS011;71135;16.738;-14.648;2024-02-23T00:27:03;10.00;;;1.40;;
81725;SDS011;71135;16.738;-14.648;2024-02-23T00:29:41;7.95;;;1.10;;
81725;SDS011;71135;16.738;-14.648;2024-02-23T00:32:13;6.07;;;1.30;;
81725;SDS011;71135;16.738;-14.648;2024-02-23T00:34:42;9.52;;;2.00;;
81725;SDS011;71135;16.738;-14.648;2024-02-23T00:37:14;9.88;;;1.20;;
81725;SDS011;71135;16.738;-14.648;2024-02-23T00:42:37;6.60;;;1.00;;
81725;SDS011;71135;16.738;-14.648;2024-02-23T00:45:07;6.22;;;1.30;;
81725;SDS011;71135;16.738;-14.648;2024-02-23T00:47:36;3.50;;;0.80;;
81725;SDS011;71135;16.738;-14.648;2024-02-23T00:50:06;8.02;;;1.40;;
81725;SDS011;71135;16.738;-14.648;2024-02-23T00:52:38;8.52;;;1.60;;
81725;SDS011;71135;16.738;-14.648;2024-02-23T00:55:08;6.53;;;1.17;;
81725;SDS011;71135;16.738;-14.648;2024-02-23T00:57:37;7.88;;;1.10;;
81725;SDS011;71135;16.738;-14.648;2024-02-23T01:00:07;13.10;;;1.63;;
81725;SDS011;71135;16.738;-14.648;2024-02-23T01:02:37;7.10;;;1.58;;
81725;SDS011;71135;16.738;-14.648;2024-02-23T01:05:07;7.95;;;1.52;;
81725;SDS011;71135;16.738;-14.648;2024-02-23T01:07:39;5.30;;;1.13;;
81725;SDS011;71135;16.738;-14.648;2024-02-23T01:10:08;8.40;;;1.33;;
81725;SDS011;71135;16.738;-14.648;2024-02-23T01:12:37;8.15;;;1.45;;
81725;SDS011;71135;16.738;-14.648;2024-02-23T01:15:07;5.28;;;1.00;;
81725;SDS011;71135;16.738;-14.648;2024-02-23T01:17:38;5.57;;;1.63;;
81725;SDS011;71135;16.738;-14.648;2024-02-23T01:20:07;3.67;;;1.10;;
81725;SDS011;71135;16.738;-14.648;2024-02-23T01:22:40;6.35;;;1.73;;
81725;SDS011;71135;16.738;-14.648;2024-02-23T01:25:09;8.05;;;1.15;;
81725;SDS011;71135;16.738;-14.648;2024-02-23T01:27:38;3.13;;;1.33;;
81725;SDS011;71135;16.738;-14.648;2024-02-23T01:30:07;6.85;;;1.08;;
81725;SDS011;71135;16.738;-14.648;2024-02-23T01:32:37;8.18;;;1.17;;
81725;SDS011;71135;16.738;-14.648;2024-02-23T01:35:07;14.68;;;1.63;;
81725;SDS011;71135;16.738;-14.648;2024-02-23T01:37:36;7.10;;;1.35;;
81725;SDS011;71135;16.738;-14.648;2024-02-23T01:40:09;5.90;;;1.10;;
81725;SDS011;71135;16.738;-14.648;2024-02-23T01:42:38;4.82;;;0.75;;
81725;SDS011;71135;16.738;-14.648;2024-02-23T01:45:08;7.22;;;1.05;;
81725;SDS011;71135;16.738;-14.648;2024-02-23T01:47:37;3.22;;;0.75;;
81725;SDS011;71135;16.738;-14.648;2024-02-23T01:50:07;5.45;;;0.88;;
81725;SDS011;71135;16.738;-14.648;2024-02-23T01:52:41;7.43;;;1.08;;
81725;SDS011;71135;16.738;-14.648;2024-02-23T01:55:10;9.65;;;1.48;;
81725;SDS011;71135;16.738;-14.648;2024-02-23T01:57:39;5.43;;;1.35;;
81725;SDS011;71135;16.738;-14.648;2024-02-23T02:00:09;5.75;;;1.05;;
81725;SDS011;71135;16.738;-14.648;2024-02-23T02:02:49;8.00;;;1.10;;
81725;SDS011;71135;16.738;-14.648;2024-02-23T02:05:18;3.38;;;0.73;;
81725;SDS011;71135;16.738;-14.648;2024-02-23T02:07:51;7.80;;;1.15;;
81725;SDS011;71135;16.738;-14.648;2024-02-23T02:10:24;3.65;;;0.75;;
81725;SDS011;71135;16.738;-14.648;2024-02-23T02:12:54;8.38;;;1.10;;
81725;SDS011;71135;16.738;-14.648;2024-02-23T02:15:23;5.38;;;1.20;;
81725;SDS011;71135;16.738;-14.648;2024-02-23T02:17:53;2.38;;;0.68;;
81725;SDS011;71135;16.738;-14.648;2024-02-23T02:20:23;10.00;;;1.08;;
81725;SDS011;71135;16.738;-14.648;2024-02-23T02:22:56;5.25;;;1.00;;
81725;SDS011;71135;16.738;-14.648;2024-02-23T02:25:25;5.47;;;1.25;;
81725;SDS011;71135;16.738;-14.648;2024-02-23T02:27:54;5.38;;;0.85;;
81725;SDS011;71135;16.738;-14.648;2024-02-23T02:30:23;6.32;;;1.48;;
81725;SDS011;71135;16.738;-14.648;2024-02-23T02:32:52;5.57;;;1.27;;
81725;SDS011;71135;16.738;-14.648;2024-02-23T02:35:21;9.02;;;1.20;;
81725;SDS011;71135;16.738;-14.648;2024-02-23T02:37:50;8.73;;;1.98;;
81725;SDS011;71135;16.738;-14.648;2024-02-23T02:40:22;9.10;;;1.63;;
81725;SDS011;71135;16.738;-14.648;2024-02-23T02:45:51;6.40;;;1.27;;
81725;SDS011;71135;16.738;-14.648;2024-02-23T02:51:11;8.05;;;1.33;;
81725;SDS011;71135;16.738;-14.648;2024-02-23T02:53:40;7.25;;;1.15;;
81725;SDS011;71135;16.738;-14.648;2024-02-23T02:56:12;6.32;;;1.55;;
81725;SDS011;71135;16.738;-14.648;2024-02-23T03:01:26;3.88;;;0.90;;
81725;SDS011;71135;16.738;-14.648;2024-02-23T03:03:55;3.97;;;0.75;;
81725;SDS011;71135;16.738;-14.648;2024-02-23T03:06:24;6.13;;;1.08;;
81725;SDS011;71135;16.738;-14.648;2024-02-23T03:08:53;3.60;;;0.77;;
81725;SDS011;71135;16.738;-14.648;2024-02-23T03:11:25;7.13;;;0.60;;
81725;SDS011;71135;16.738;-14.648;2024-02-23T03:13:54;6.53;;;1.55;;
81725;SDS011;71135;16.738;-14.648;2024-02-23T03:16:23;3.80;;;0.75;;
81725;SDS011;71135;16.738;-14.648;2024-02-23T03:18:54;6.72;;;1.17;;
81725;SDS011;71135;16.738;-14.648;2024-02-23T03:21:23;6.75;;;1.50;;
81725;SDS011;71135;16.738;-14.648;2024-02-23T03:23:53;6.03;;;1.05;;
81725;SDS011;71135;16.738;-14.648;2024-02-23T03:26:24;4.72;;;0.73;;
81725;SDS011;71135;16.738;-14.648;2024-02-23T03:28:53;6.90;;;0.93;;
81725;SDS011;71135;16.738;-14.648;2024-02-23T03:31:25;3.08;;;1.00;;
81725;SDS011;71135;16.738;-14.648;2024-02-23T03:33:54;5.35;;;0.80;;
81725;SDS011;71135;16.738;-14.648;2024-02-23T03:36:24;6.13;;;0.80;;
81725;SDS011;71135;16.738;-14.648;2024-02-23T03:38:53;6.28;;;0.90;;
81725;SDS011;71135;16.738;-14.648;2024-02-23T03:41:24;6.35;;;0.82;;
81725;SDS011;71135;16.738;-14.648;2024-02-23T03:43:54;10.43;;;1.35;;
81725;SDS011;71135;16.738;-14.648;2024-02-23T03:46:25;3.08;;;0.60;;
81725;SDS011;71135;16.738;-14.648;2024-02-23T03:48:54;6.22;;;1.20;;
81725;SDS011;71135;16.738;-14.648;2024-02-23T03:51:24;5.70;;;0.68;;
81725;SDS011;71135;16.738;-14.648;2024-02-23T03:53:55;4.53;;;0.77;;
81725;SDS011;71135;16.738;-14.648;2024-02-23T03:56:27;6.43;;;1.08;;
81725;SDS011;71135;16.738;-14.648;2024-02-23T03:58:56;4.95;;;1.70;;
81725;SDS011;71135;16.738;-14.648;2024-02-23T04:01:27;8.35;;;1.10;;
81725;SDS011;71135;16.738;-14.648;2024-02-23T04:03:59;5.60;;;1.00;;
81725;SDS011;71135;16.738;-14.648;2024-02-23T04:06:28;4.05;;;0.90;;
81725;SDS011;71135;16.738;-14.648;2024-02-23T04:08:59;3.85;;;0.85;;
81725;SDS011;71135;16.738;-14.648;2024-02-23T04:11:33;5.65;;;0.95;;
81725;SDS011;71135;16.738;-14.648;2024-02-23T04:14:02;7.72;;;1.30;;
81725;SDS011;71135;16.738;-14.648;2024-02-23T04:16:31;3.42;;;0.77;;
81725;SDS011;71135;16.738;-14.648;2024-02-23T04:19:00;3.72;;;1.05;;
81725;SDS011;71135;16.738;-14.648;2024-02-23T04:21:29;7.93;;;1.73;;
81725;SDS011;71135;16.738;-14.648;2024-02-23T04:23:59;6.60;;;1.65;;
81725;SDS011;71135;16.738;-14.648;2024-02-23T04:26:28;4.28;;;1.08;;
81725;SDS011;71135;16.738;-14.648;2024-02-23T04:29:00;7.43;;;1.40;;
81725;SDS011;71135;16.738;-14.648;2024-02-23T04:31:29;9.95;;;1.90;;
81725;SDS011;71135;16.738;-14.648;2024-02-23T04:33:58;8.18;;;1.40;;
81725;SDS011;71135;16.738;-14.648;2024-02-23T04:36:27;9.65;;;1.85;;
81725;SDS011;71135;16.738;-14.648;2024-02-23T04:38:57;8.07;;;1.85;;
81725;SDS011;71135;16.738;-14.648;2024-02-23T04:41:26;9.18;;;1.70;;
81725;SDS011;71135;16.738;-14.648;2024-02-23T04:43:55;6.80;;;1.38;;
81725;SDS011;71135;16.738;-14.648;2024-02-23T04:46:28;4.32;;;1.20;;
81725;SDS011;71135;16.738;-14.648;2024-02-23T04:48:59;6.68;;;1.50;;
81725;SDS011;71135;16.738;-14.648;2024-02-23T04:51:29;8.20;;;2.03;;
81725;SDS011;71135;16.738;-14.648;2024-02-23T04:53:58;4.95;;;1.10;;
81725;SDS011;71135;16.738;-14.648;2024-02-23T04:56:27;4.22;;;2.10;;
81725;SDS011;71135;16.738;-14.648;2024-02-23T04:58:56;3.47;;;1.27;;
81725;SDS011;71135;16.738;-14.648;2024-02-23T05:01:28;7.78;;;1.33;;
81725;SDS011;71135;16.738;-14.648;2024-02-23T05:03:58;3.13;;;1.30;;
81725;SDS011;71135;16.738;-14.648;2024-02-23T05:06:27;9.15;;;1.45;;
81725;SDS011;71135;16.738;-14.648;2024-02-23T05:09:00;3.00;;;1.38;;
81725;SDS011;71135;16.738;-14.648;2024-02-23T05:11:31;6.35;;;1.23;;
81725;SDS011;71135;16.738;-14.648;2024-02-23T05:14:00;5.15;;;2.05;;
81725;SDS011;71135;16.738;-14.648;2024-02-23T05:16:32;6.78;;;1.60;;
81725;SDS011;71135;16.738;-14.648;2024-02-23T05:19:01;10.43;;;2.08;;
81725;SDS011;71135;16.738;-14.648;2024-02-23T05:21:30;10.32;;;1.75;;
81725;SDS011;71135;16.738;-14.648;2024-02-23T05:24:03;6.75;;;2.08;;
81725;SDS011;71135;16.738;-14.648;2024-02-23T05:26:33;8.73;;;2.17;;
81725;SDS011;71135;16.738;-14.648;2024-02-23T05:29:02;6.72;;;2.42;;
81725;SDS011;71135;16.738;-14.648;2024-02-23T05:31:46;13.88;;;4.53;;
81725;SDS011;71135;16.738;-14.648;2024-02-23T05:34:16;8.23;;;2.20;;
81725;SDS011;71135;16.738;-14.648;2024-02-23T05:36:46;10.88;;;2.88;;
81725;SDS011;71135;16.738;-14.648;2024-02-23T05:39:16;6.90;;;2.72;;
81725;SDS011;71135;16.738;-14.648;2024-02-23T05:41:46;5.32;;;2.10;;
81725;SDS011;71135;16.738;-14.648;2024-02-23T05:44:15;6.65;;;2.35;;
81725;SDS011;71135;16.738;-14.648;2024-02-23T05:46:46;8.07;;;2.90;;
81725;SDS011;71135;16.738;-14.648;2024-02-23T05:49:15;6.95;;;2.47;;
81725;SDS011;71135;16.738;-14.648;2024-02-23T05:51:45;8.70;;;2.50;;
81725;SDS011;71135;16.738;-14.648;2024-02-23T05:54:14;8.93;;;2.65;;
81725;SDS011;71135;16.738;-14.648;2024-02-23T05:56:43;5.05;;;2.47;;
81725;SDS011;71135;16.738;-14.648;2024-02-23T05:59:13;6.80;;;2.75;;
81725;SDS011;71135;16.738;-14.648;2024-02-23T06:01:42;6.22;;;2.17;;
81725;SDS011;71135;16.738;-14.648;2024-02-23T06:04:14;6.10;;;2.85;;
81725;SDS011;71135;16.738;-14.648;2024-02-23T06:06:43;9.63;;;2.45;;
81725;SDS011;71135;16.738;-14.648;2024-02-23T06:09:12;9.68;;;2.55;;
81725;SDS011;71135;16.738;-14.648;2024-02-23T06:11:42;8.70;;;2.75;;
81725;SDS011;71135;16.738;-14.648;2024-02-23T06:14:11;7.55;;;3.13;;
81725;SDS011;71135;16.738;-14.648;2024-02-23T06:16:40;7.53;;;2.58;;
81725;SDS011;71135;16.738;-14.648;2024-02-23T06:19:09;5.82;;;2.55;;
81725;SDS011;71135;16.738;-14.648;2024-02-23T06:21:41;5.10;;;2.53;;
81725;SDS011;71135;16.738;-14.648;2024-02-23T06:24:10;2.63;;;2.17;;
81725;SDS011;71135;16.738;-14.648;2024-02-23T06:26:39;4.53;;;2.78;;
81725;SDS011;71135;16.738;-14.648;2024-02-23T06:29:08;12.15;;;3.33;;
81725;SDS011;71135;16.738;-14.648;2024-02-23T06:31:39;7.10;;;3.22;;
81725;SDS011;71135;16.738;-14.648;2024-02-23T06:34:14;5.82;;;2.60;;
81725;SDS011;71135;16.738;-14.648;2024-02-23T06:36:46;5.43;;;2.92;;
81725;SDS011;71135;16.738;-14.648;2024-02-23T06:39:15;5.78;;;2.85;;
81725;SDS011;71135;16.738;-14.648;2024-02-23T06:41:45;5.85;;;3.00;;
81725;SDS011;71135;16.738;-14.648;2024-02-23T06:44:14;7.93;;;3.10;;
81725;SDS011;71135;16.738;-14.648;2024-02-23T06:46:44;5.32;;;2.70;;
81725;SDS011;71135;16.738;-14.648;2024-02-23T06:49:13;6.90;;;2.80;;
81725;SDS011;71135;16.738;-14.648;2024-02-23T06:51:42;4.50;;;2.65;;
81725;SDS011;71135;16.738;-14.648;2024-02-23T06:54:14;10.65;;;3.25;;
81725;SDS011;71135;16.738;-14.648;2024-02-23T06:56:43;6.70;;;3.10;;
81725;SDS011;71135;16.738;-14.648;2024-02-23T06:59:12;4.95;;;2.50;;
81725;SDS011;71135;16.738;-14.648;2024-02-23T07:01:48;8.13;;;2.47;;
81725;SDS011;71135;16.738;-14.648;2024-02-23T07:04:18;5.65;;;2.78;;
81725;SDS011;71135;16.738;-14.648;2024-02-23T07:06:50;5.68;;;2.08;;
81725;SDS011;71135;16.738;-14.648;2024-02-23T07:09:19;4.47;;;2.67;;
81725;SDS011;71135;16.738;-14.648;2024-02-23T07:11:48;3.42;;;2.33;;
81725;SDS011;71135;16.738;-14.648;2024-02-23T07:14:17;9.23;;;2.92;;
81725;SDS011;71135;16.738;-14.648;2024-02-23T07:16:47;3.92;;;2.30;;
81725;SDS011;71135;16.738;-14.648;2024-02-23T07:19:17;8.80;;;2.50;;
81725;SDS011;71135;16.738;-14.648;2024-02-23T07:21:46;6.88;;;2.55;;
81725;SDS011;71135;16.738;-14.648;2024-02-23T07:24:18;4.72;;;2.28;;
81725;SDS011;71135;16.738;-14.648;2024-02-23T07:26:47;4.78;;;2.25;;
81725;SDS011;71135;16.738;-14.648;2024-02-23T07:29:16;6.60;;;2.35;;
81725;SDS011;71135;16.738;-14.648;2024-02-23T07:31:46;7.75;;;2.53;;
81725;SDS011;71135;16.738;-14.648;2024-02-23T07:34:15;5.13;;;1.75;;
81725;SDS011;71135;16.738;-14.648;2024-02-23T07:36:44;4.85;;;1.55;;
81725;SDS011;71135;16.738;-14.648;2024-02-23T07:39:16;3.35;;;1.45;;
81725;SDS011;71135;16.738;-14.648;2024-02-23T07:41:45;4.40;;;1.55;;
81725;SDS011;71135;16.738;-14.648;2024-02-23T07:44:14;4.38;;;1.70;;
81725;SDS011;71135;16.738;-14.648;2024-02-23T07:46:43;6.68;;;2.45;;
81725;SDS011;71135;16.738;-14.648;2024-02-23T07:49:12;2.15;;;1.10;;
81725;SDS011;71135;16.738;-14.648;2024-02-23T07:51:42;4.70;;;1.58;;
81725;SDS011;71135;16.738;-14.648;2024-02-23T07:54:11;5.75;;;1.38;;
81725;SDS011;71135;16.738;-14.648;2024-02-23T07:56:43;3.92;;;1.48;;
81725;SDS011;71135;16.738;-14.648;2024-02-23T07:59:12;4.68;;;2.10;;
81725;SDS011;71135;16.738;-14.648;2024-02-23T08:01:41;3.33;;;1.13;;
81725;SDS011;71135;16.738;-14.648;2024-02-23T08:04:10;3.78;;;0.90;;
81725;SDS011;71135;16.738;-14.648;2024-02-23T08:06:39;7.30;;;1.15;;
81725;SDS011;71135;16.738;-14.648;2024-02-23T08:09:09;5.90;;;1.52;;
81725;SDS011;71135;16.738;-14.648;2024-02-23T08:11:38;4.93;;;1.35;;
81725;SDS011;71135;16.738;-14.648;2024-02-23T08:14:10;2.70;;;1.10;;
81725;SDS011;71135;16.738;-14.648;2024-02-23T08:16:39;4.38;;;1.40;;
81725;SDS011;71135;16.738;-14.648;2024-02-23T08:19:08;5.20;;;1.38;;
81725;SDS011;71135;16.738;-14.648;2024-02-23T08:21:37;3.88;;;0.70;;
81725;SDS011;71135;16.738;-14.648;2024-02-23T08:24:06;3.08;;;0.73;;
81725;SDS011;71135;16.738;-14.648;2024-02-23T08:26:36;5.20;;;1.77;;
81725;SDS011;71135;16.738;-14.648;2024-02-23T08:29:11;3.85;;;1.02;;
81725;SDS011;71135;16.738;-14.648;2024-02-23T08:31:40;4.25;;;1.38;;
81725;SDS011;71135;16.738;-14.648;2024-02-23T08:34:09;7.32;;;1.05;;
81725;SDS011;71135;16.738;-14.648;2024-02-23T08:36:38;5.43;;;0.73;;
81725;SDS011;71135;16.738;-14.648;2024-02-23T08:39:07;4.65;;;1.10;;
81725;SDS011;71135;16.738;-14.648;2024-02-23T08:41:36;3.45;;;0.95;;
81725;SDS011;71135;16.738;-14.648;2024-02-23T08:44:05;6.05;;;1.50;;
81725;SDS011;71135;16.738;-14.648;2024-02-23T08:46:37;1.65;;;0.80;;
81725;SDS011;71135;16.738;-14.648;2024-02-23T08:49:07;4.68;;;1.10;;
81725;SDS011;71135;16.738;-14.648;2024-02-23T08:51:36;5.68;;;1.58;;
81725;SDS011;71135;16.738;-14.648;2024-02-23T08:54:05;6.13;;;1.45;;
81725;SDS011;71135;16.738;-14.648;2024-02-23T08:56:37;3.80;;;1.63;;
81725;SDS011;71135;16.738;-14.648;2024-02-23T08:59:08;3.92;;;1.27;;
81725;SDS011;71135;16.738;-14.648;2024-02-23T09:01:40;5.38;;;1.55;;
81725;SDS011;71135;16.738;-14.648;2024-02-23T09:04:10;6.32;;;1.27;;
81725;SDS011;71135;16.738;-14.648;2024-02-23T09:06:39;2.53;;;1.33;;
81725;SDS011;71135;16.738;-14.648;2024-02-23T09:09:08;5.30;;;1.35;;
81725;SDS011;71135;16.738;-14.648;2024-02-23T09:11:37;4.88;;;1.95;;
81725;SDS011;71135;16.738;-14.648;2024-02-23T09:14:06;6.88;;;1.35;;
81725;SDS011;71135;16.738;-14.648;2024-02-23T09:16:35;5.70;;;1.50;;
81725;SDS011;71135;16.738;-14.648;2024-02-23T09:19:07;3.78;;;1.35;;
81725;SDS011;71135;16.738;-14.648;2024-02-23T09:21:36;3.85;;;1.33;;
81725;SDS011;71135;16.738;-14.648;2024-02-23T09:24:06;5.30;;;1.27;;
81725;SDS011;71135;16.738;-14.648;2024-02-23T09:26:35;5.82;;;1.42;;
81725;SDS011;71135;16.738;-14.648;2024-02-23T09:29:16;2.55;;;1.33;;
81725;SDS011;71135;16.738;-14.648;2024-02-23T09:31:45;4.72;;;1.48;;
81725;SDS011;71135;16.738;-14.648;2024-02-23T09:34:17;6.97;;;2.13;;
81725;SDS011;71135;16.738;-14.648;2024-02-23T09:36:46;3.63;;;1.48;;
81725;SDS011;71135;16.738;-14.648;2024-02-23T09:39:15;2.55;;;1.27;;
81725;SDS011;71135;16.738;-14.648;2024-02-23T09:41:45;3.22;;;1.08;;
81725;SDS011;71135;16.738;-14.648;2024-02-23T09:44:20;4.63;;;1.50;;
81725;SDS011;71135;16.738;-14.648;2024-02-23T09:46:50;2.70;;;0.88;;
81725;SDS011;71135;16.738;-14.648;2024-02-23T09:49:22;4.35;;;1.00;;
81725;SDS011;71135;16.738;-14.648;2024-02-23T09:51:51;3.58;;;1.30;;
81725;SDS011;71135;16.738;-14.648;2024-02-23T09:54:28;3.75;;;1.25;;
81725;SDS011;71135;16.738;-14.648;2024-02-23T09:56:57;9.35;;;1.10;;
81725;SDS011;71135;16.738;-14.648;2024-02-23T09:59:27;5.45;;;1.40;;
81725;SDS011;71135;16.738;-14.648;2024-02-23T10:01:56;8.45;;;2.65;;
81725;SDS011;71135;16.738;-14.648;2024-02-23T10:04:29;3.03;;;1.20;;
81725;SDS011;71135;16.738;-14.648;2024-02-23T10:06:58;4.43;;;1.27;;
81725;SDS011;71135;16.738;-14.648;2024-02-23T10:09:29;6.53;;;1.67;;
81725;SDS011;71135;16.738;-14.648;2024-02-23T10:11:58;2.85;;;1.40;;
81725;SDS011;71135;16.738;-14.648;2024-02-23T10:14:27;4.22;;;1.10;;
81725;SDS011;71135;16.738;-14.648;2024-02-23T10:16:57;3.38;;;1.08;;
81725;SDS011;71135;16.738;-14.648;2024-02-23T10:19:31;3.50;;;1.17;;
81725;SDS011;71135;16.738;-14.648;2024-02-23T10:24:55;5.68;;;1.33;;
81725;SDS011;71135;16.738;-14.648;2024-02-23T10:27:24;5.43;;;1.25;;
81725;SDS011;71135;16.738;-14.648;2024-02-23T10:29:54;2.33;;;1.45;;
81725;SDS011;71135;16.738;-14.648;2024-02-23T10:32:23;3.55;;;1.10;;
81725;SDS011;71135;16.738;-14.648;2024-02-23T10:34:57;5.03;;;1.15;;
81725;SDS011;71135;16.738;-14.648;2024-02-23T10:37:29;4.55;;;1.25;;
81725;SDS011;71135;16.738;-14.648;2024-02-23T10:39:59;4.03;;;1.15;;
81725;SDS011;71135;16.738;-14.648;2024-02-23T10:42:30;4.40;;;1.30;;
81725;SDS011;71135;16.738;-14.648;2024-02-23T10:45:03;4.53;;;1.25;;
81725;SDS011;71135;16.738;-14.648;2024-02-23T10:47:34;3.50;;;1.60;;
81725;SDS011;71135;16.738;-14.648;2024-02-23T10:50:07;2.55;;;1.45;;
81725;SDS011;71135;16.738;-14.648;2024-02-23T10:52:40;3.70;;;1.20;;
81725;SDS011;71135;16.738;-14.648;2024-02-23T10:55:10;6.90;;;1.67;;
81725;SDS011;71135;16.738;-14.648;2024-02-23T10:57:39;5.32;;;1.33;;
81725;SDS011;71135;16.738;-14.648;2024-02-23T11:00:09;5.05;;;1.38;;
81725;SDS011;71135;16.738;-14.648;2024-02-23T11:02:43;2.90;;;1.60;;
81725;SDS011;71135;16.738;-14.648;2024-02-23T11:05:18;4.25;;;1.50;;
81725;SDS011;71135;16.738;-14.648;2024-02-23T11:07:47;3.15;;;1.20;;
81725;SDS011;71135;16.738;-14.648;2024-02-23T11:10:17;5.18;;;1.60;;
81725;SDS011;71135;16.738;-14.648;2024-02-23T11:12:56;2.95;;;1.33;;
81725;SDS011;71135;16.738;-14.648;2024-02-23T11:15:27;9.45;;;1.80;;
81725;SDS011;71135;16.738;-14.648;2024-02-23T11:17:59;7.20;;;1.63;;
81725;SDS011;71135;16.738;-14.648;2024-02-23T11:20:36;4.28;;;1.02;;
81725;SDS011;71135;16.738;-14.648;2024-02-23T11:23:12;5.35;;;2.03;;
81725;SDS011;71135;16.738;-14.648;2024-02-23T11:25:42;5.63;;;1.45;;
81725;SDS011;71135;16.738;-14.648;2024-02-23T11:28:21;4.75;;;1.90;;
81725;SDS011;71135;16.738;-14.648;2024-02-23T11:30:51;3.25;;;1.30;;
81725;SDS011;71135;16.738;-14.648;2024-02-23T11:33:26;3.38;;;1.30;;
81725;SDS011;71135;16.738;-14.648;2024-02-23T11:36:07;2.40;;;1.38;;
81725;SDS011;71135;16.738;-14.648;2024-02-23T11:38:38;2.88;;;0.98;;
81725;SDS011;71135;16.738;-14.648;2024-02-23T11:41:07;4.38;;;1.20;;
81725;SDS011;71135;16.738;-14.648;2024-02-23T11:43:38;4.43;;;1.55;;
81725;SDS011;71135;16.738;-14.648;2024-02-23T11:46:09;4.70;;;1.27;;
81725;SDS011;71135;16.738;-14.648;2024-02-23T11:48:38;2.38;;;1.42;;
81725;SDS011;71135;16.738;-14.648;2024-02-23T11:51:11;2.88;;;1.13;;
81725;SDS011;71135;16.738;-14.648;2024-02-23T11:53:41;4.43;;;1.42;;
81725;SDS011;71135;16.738;-14.648;2024-02-23T11:56:11;6.25;;;1.30;;
81725;SDS011;71135;16.738;-14.648;2024-02-23T11:58:40;4.10;;;1.40;;
81725;SDS011;71135;16.738;-14.648;2024-02-23T12:01:10;6.70;;;1.48;;
81725;SDS011;71135;16.738;-14.648;2024-02-23T12:03:39;3.22;;;1.42;;
81725;SDS011;71135;16.738;-14.648;2024-02-23T12:06:12;2.50;;;1.33;;
81725;SDS011;71135;16.738;-14.648;2024-02-23T12:08:43;3.92;;;1.17;;
81725;SDS011;71135;16.738;-14.648;2024-02-23T12:11:13;2.75;;;1.38;;
81725;SDS011;71135;16.738;-14.648;2024-02-23T12:13:42;4.35;;;1.58;;
81725;SDS011;71135;16.738;-14.648;2024-02-23T12:16:13;3.50;;;1.10;;
81725;SDS011;71135;16.738;-14.648;2024-02-23T12:18:43;3.10;;;1.20;;
81725;SDS011;71135;16.738;-14.648;2024-02-23T12:21:14;6.18;;;1.77;;
81725;SDS011;71135;16.738;-14.648;2024-02-23T12:23:44;3.90;;;1.30;;
81725;SDS011;71135;16.738;-14.648;2024-02-23T12:26:14;1.88;;;1.25;;
81725;SDS011;71135;16.738;-14.648;2024-02-23T12:28:44;3.28;;;1.23;;
81725;SDS011;71135;16.738;-14.648;2024-02-23T12:31:14;1.60;;;0.85;;
81725;SDS011;71135;16.738;-14.648;2024-02-23T12:33:43;3.22;;;1.45;;
81725;SDS011;71135;16.738;-14.648;2024-02-23T12:36:16;4.68;;;1.20;;
81725;SDS011;71135;16.738;-14.648;2024-02-23T12:38:46;4.82;;;1.38;;
81725;SDS011;71135;16.738;-14.648;2024-02-23T12:41:15;5.40;;;1.30;;
81725;SDS011;71135;16.738;-14.648;2024-02-23T12:43:44;7.07;;;1.15;;
81725;SDS011;71135;16.738;-14.648;2024-02-23T12:46:13;5.57;;;1.33;;
81725;SDS011;71135;16.738;-14.648;2024-02-23T12:48:43;4.50;;;1.20;;
81725;SDS011;71135;16.738;-14.648;2024-02-23T12:51:12;3.55;;;1.15;;
81725;SDS011;71135;16.738;-14.648;2024-02-23T12:53:44;5.97;;;1.30;;
81725;SDS011;71135;16.738;-14.648;2024-02-23T12:56:13;4.35;;;1.00;;
81725;SDS011;71135;16.738;-14.648;2024-02-23T12:58:43;3.75;;;1.88;;
81725;SDS011;71135;16.738;-14.648;2024-02-23T13:01:13;3.33;;;1.20;;
81725;SDS011;71135;16.738;-14.648;2024-02-23T13:03:42;3.47;;;1.15;;
81725;SDS011;71135;16.738;-14.648;2024-02-23T13:06:11;4.95;;;1.25;;
81725;SDS011;71135;16.738;-14.648;2024-02-23T13:08:43;1.55;;;0.57;;
81725;SDS011;71135;16.738;-14.648;2024-02-23T13:11:13;1.45;;;0.77;;
81725;SDS011;71135;16.738;-14.648;2024-02-23T13:13:42;3.80;;;0.80;;
81725;SDS011;71135;16.738;-14.648;2024-02-23T13:16:11;3.13;;;1.02;;
81725;SDS011;71135;16.738;-14.648;2024-02-23T13:18:40;2.80;;;0.80;;
81725;SDS011;71135;16.738;-14.648;2024-02-23T13:21:10;2.45;;;1.00;;
81725;SDS011;71135;16.738;-14.648;2024-02-23T13:23:39;2.70;;;1.20;;
81725;SDS011;71135;16.738;-14.648;2024-02-23T13:26:11;2.95;;;1.10;;
81725;SDS011;71135;16.738;-14.648;2024-02-23T13:28:41;2.78;;;0.85;;
81725;SDS011;71135;16.738;-14.648;2024-02-23T13:31:10;5.65;;;0.80;;
81725;SDS011;71135;16.738;-14.648;2024-02-23T13:33:40;2.03;;;0.98;;
81725;SDS011;71135;16.738;-14.648;2024-02-23T13:36:10;1.40;;;0.85;;
81725;SDS011;71135;16.738;-14.648;2024-02-23T13:38:40;6.95;;;1.23;;
81725;SDS011;71135;16.738;-14.648;2024-02-23T13:41:12;2.35;;;0.68;;
81725;SDS011;71135;16.738;-14.648;2024-02-23T13:43:41;3.15;;;0.73;;
81725;SDS011;71135;16.738;-14.648;2024-02-23T13:46:10;2.35;;;0.80;;
81725;SDS011;71135;16.738;-14.648;2024-02-23T13:48:39;2.50;;;0.80;;
81725;SDS011;71135;16.738;-14.648;2024-02-23T13:51:08;2.97;;;0.75;;
81725;SDS011;71135;16.738;-14.648;2024-02-23T13:53:37;2.40;;;0.70;;
81725;SDS011;71135;16.738;-14.648;2024-02-23T13:56:07;4.97;;;0.77;;
81725;SDS011;71135;16.738;-14.648;2024-02-23T13:58:39;2.30;;;0.80;;
81725;SDS011;71135;16.738;-14.648;2024-02-23T14:01:09;5.20;;;1.33;;
81725;SDS011;71135;16.738;-14.648;2024-02-23T14:03:38;3.40;;;0.70;;
81725;SDS011;71135;16.738;-14.648;2024-02-23T14:06:07;1.00;;;0.68;;
81725;SDS011;71135;16.738;-14.648;2024-02-23T14:08:37;3.05;;;0.70;;
81725;SDS011;71135;16.738;-14.648;2024-02-23T14:11:06;4.25;;;1.42;;
81725;SDS011;71135;16.738;-14.648;2024-02-23T14:13:35;4.75;;;0.80;;
81725;SDS011;71135;16.738;-14.648;2024-02-23T14:16:07;3.97;;;0.80;;
81725;SDS011;71135;16.738;-14.648;2024-02-23T14:18:36;2.45;;;0.80;;
81725;SDS011;71135;16.738;-14.648;2024-02-23T14:21:08;3.78;;;0.70;;
81725;SDS011;71135;16.738;-14.648;2024-02-23T14:23:39;4.05;;;0.73;;
81725;SDS011;71135;16.738;-14.648;2024-02-23T14:26:08;4.53;;;0.95;;
81725;SDS011;71135;16.738;-14.648;2024-02-23T14:28:38;2.58;;;0.73;;
81725;SDS011;71135;16.738;-14.648;2024-02-23T14:31:10;4.07;;;1.00;;
81725;SDS011;71135;16.738;-14.648;2024-02-23T14:33:42;6.20;;;0.80;;
81725;SDS011;71135;16.738;-14.648;2024-02-23T14:36:11;4.97;;;1.02;;
81725;SDS011;71135;16.738;-14.648;2024-02-23T14:38:40;3.20;;;1.00;;
81725;SDS011;71135;16.738;-14.648;2024-02-23T14:41:09;6.43;;;0.82;;
81725;SDS011;71135;16.738;-14.648;2024-02-23T14:43:39;3.00;;;0.75;;
81725;SDS011;71135;16.738;-14.648;2024-02-23T14:46:10;2.40;;;0.80;;
81725;SDS011;71135;16.738;-14.648;2024-02-23T14:48:39;2.65;;;0.75;;
81725;SDS011;71135;16.738;-14.648;2024-02-23T14:51:09;3.95;;;0.90;;
81725;SDS011;71135;16.738;-14.648;2024-02-23T14:53:38;3.72;;;0.75;;